createdAt,value
2018-09-15T00:00:56.697Z,1015.76
2018-09-15T00:01:55.840Z,1015.79
2018-09-15T00:02:56.578Z,1015.76
2018-09-15T00:03:56.582Z,1015.77
2018-09-15T00:04:55.793Z,1015.78
2018-09-15T00:05:56.634Z,1015.82
2018-09-15T00:06:56.579Z,1015.79
2018-09-15T00:07:55.667Z,1015.82
2018-09-15T00:08:55.640Z,1015.82
2018-09-15T00:09:56.135Z,1015.78
2018-09-15T00:10:56.594Z,1015.80
2018-09-15T00:11:56.082Z,1015.79
2018-09-15T00:12:56.083Z,1015.80
2018-09-15T00:13:55.505Z,1015.78
2018-09-15T00:14:55.635Z,1015.77
2018-09-15T00:15:55.457Z,1015.73
2018-09-15T00:16:56.082Z,1015.76
2018-09-15T00:17:55.395Z,1015.80
2018-09-15T00:18:56.119Z,1015.78
2018-09-15T00:19:55.634Z,1015.78
2018-09-15T00:20:56.085Z,1015.77
2018-09-15T00:21:56.084Z,1015.82
2018-09-15T00:22:55.271Z,1015.82
2018-09-15T00:23:55.230Z,1015.80
2018-09-15T00:24:55.632Z,1015.82
2018-09-15T00:25:55.262Z,1015.78
2018-09-15T00:26:55.643Z,1015.78
2018-09-15T00:27:56.088Z,1015.74
2018-09-15T00:28:55.094Z,1015.75
2018-09-15T00:29:55.586Z,1015.71
2018-09-15T00:30:55.147Z,1015.73
2018-09-15T00:31:55.010Z,1015.72
2018-09-15T00:32:55.039Z,1015.71
2018-09-15T00:33:54.956Z,1015.70
2018-09-15T00:34:54.932Z,1015.68
2018-09-15T00:35:55.588Z,1015.67
2018-09-15T00:36:55.591Z,1015.69
2018-09-15T00:37:55.153Z,1015.66
2018-09-15T00:38:55.599Z,1015.68
2018-09-15T00:39:54.795Z,1015.65
2018-09-15T00:40:55.586Z,1015.67
2018-09-15T00:41:55.653Z,1015.66
2018-09-15T00:42:54.759Z,1015.65
2018-09-15T00:43:54.677Z,1015.65
2018-09-15T00:44:55.590Z,1015.60
2018-09-15T00:45:54.623Z,1015.63
2018-09-15T00:46:55.591Z,1015.60
2018-09-15T00:47:54.659Z,1015.59
2018-09-15T00:48:54.541Z,1015.60
2018-09-15T00:49:54.510Z,1015.56
2018-09-15T00:50:55.106Z,1015.54
2018-09-15T00:51:54.467Z,1015.57
2018-09-15T00:52:54.487Z,1015.55
2018-09-15T00:53:55.095Z,1015.54
2018-09-15T00:54:54.374Z,1015.55
2018-09-15T00:55:54.355Z,1015.52
2018-09-15T00:56:54.316Z,1015.50
2018-09-15T00:57:54.664Z,1015.47
2018-09-15T00:58:54.264Z,1015.43
2018-09-15T00:59:54.232Z,1015.48
2018-09-15T01:00:55.092Z,1015.44
2018-09-15T01:01:54.177Z,1015.43
2018-09-15T01:02:54.196Z,1015.44
2018-09-15T01:03:54.650Z,1015.46
2018-09-15T01:04:54.591Z,1015.43
2018-09-15T01:05:54.064Z,1015.43
2018-09-15T01:06:54.037Z,1015.42
2018-09-15T01:07:54.591Z,1015.46
2018-09-15T01:08:54.038Z,1015.43
2018-09-15T01:09:54.593Z,1015.46
2018-09-15T01:10:54.592Z,1015.42
2018-09-15T01:11:53.899Z,1015.36
2018-09-15T01:12:53.921Z,1015.36
2018-09-15T01:13:54.538Z,1015.36
2018-09-15T01:14:54.593Z,1015.35
2018-09-15T01:15:53.788Z,1015.34
2018-09-15T01:16:54.591Z,1015.36
2018-09-15T01:17:54.593Z,1015.31
2018-09-15T01:18:54.161Z,1015.34
2018-09-15T01:19:53.677Z,1015.32
2018-09-15T01:20:53.646Z,1015.31
2018-09-15T01:21:53.616Z,1015.31
2018-09-15T01:22:54.094Z,1015.29
2018-09-15T01:23:53.619Z,1015.30
2018-09-15T01:24:53.534Z,1015.30
2018-09-15T01:25:53.568Z,1015.32
2018-09-15T01:26:54.094Z,1015.33
2018-09-15T01:27:53.450Z,1015.33
2018-09-15T01:28:53.476Z,1015.35
2018-09-15T01:29:53.665Z,1015.39
2018-09-15T01:30:53.367Z,1015.41
2018-09-15T01:31:54.095Z,1015.40
2018-09-15T01:32:54.097Z,1015.37
2018-09-15T01:33:53.290Z,1015.42
2018-09-15T01:34:53.306Z,1015.39
2018-09-15T01:35:54.097Z,1015.37
2018-09-15T01:36:54.098Z,1015.42
2018-09-15T01:37:53.173Z,1015.42
2018-09-15T01:38:54.096Z,1015.41
2018-09-15T01:39:53.653Z,1015.42
2018-09-15T01:40:53.608Z,1015.47
2018-09-15T01:41:53.059Z,1015.45
2018-09-15T01:42:53.604Z,1015.46
2018-09-15T01:43:53.001Z,1015.49
2018-09-15T01:44:53.023Z,1015.48
2018-09-15T01:45:53.597Z,1015.44
2018-09-15T01:46:53.599Z,1015.45
2018-09-15T01:47:52.891Z,1015.48
2018-09-15T01:48:53.600Z,1015.47
2018-09-15T01:49:52.880Z,1015.49
2018-09-15T01:50:53.600Z,1015.49
2018-09-15T01:51:52.781Z,1015.50
2018-09-15T01:52:53.599Z,1015.52
2018-09-15T01:53:52.726Z,1015.55
2018-09-15T01:54:52.745Z,1015.58
2018-09-15T01:55:53.610Z,1015.53
2018-09-15T01:56:53.601Z,1015.55
2018-09-15T01:57:52.607Z,1015.52
2018-09-15T01:58:52.588Z,1015.56
2018-09-15T01:59:52.600Z,1015.55
2018-09-15T02:00:53.102Z,1015.62
2018-09-15T02:01:53.103Z,1015.62
2018-09-15T02:02:52.479Z,1015.59
2018-09-15T02:03:52.444Z,1015.58
2018-09-15T02:04:52.669Z,1015.63
2018-09-15T02:05:53.106Z,1015.62
2018-09-15T02:06:52.355Z,1015.64
2018-09-15T02:07:53.100Z,1015.68
2018-09-15T02:08:52.306Z,1015.68
2018-09-15T02:09:52.320Z,1015.66
2018-09-15T02:10:53.102Z,1015.64
2018-09-15T02:11:52.254Z,1015.63
2018-09-15T02:12:53.102Z,1015.63
2018-09-15T02:13:52.154Z,1015.58
2018-09-15T02:14:53.114Z,1015.65
2018-09-15T02:15:52.152Z,1015.65
2018-09-15T02:16:52.157Z,1015.65
2018-09-15T02:17:52.661Z,1015.65
2018-09-15T02:18:52.610Z,1015.62
2018-09-15T02:19:52.603Z,1015.66
2018-09-15T02:20:52.609Z,1015.63
2018-09-15T02:21:51.979Z,1015.67
2018-09-15T02:22:51.942Z,1015.65
2018-09-15T02:23:51.870Z,1015.66
2018-09-15T02:24:51.855Z,1015.68
2018-09-15T02:25:51.811Z,1015.61
2018-09-15T02:26:52.157Z,1015.64
2018-09-15T02:27:51.754Z,1015.57
2018-09-15T02:28:51.759Z,1015.60
2018-09-15T02:29:52.604Z,1015.58
2018-09-15T02:30:51.669Z,1015.59
2018-09-15T02:31:51.683Z,1015.57
2018-09-15T02:32:52.607Z,1015.59
2018-09-15T02:33:51.585Z,1015.58
2018-09-15T02:34:52.166Z,1015.57
2018-09-15T02:35:51.543Z,1015.63
2018-09-15T02:36:51.498Z,1015.57
2018-09-15T02:37:51.471Z,1015.58
2018-09-15T02:38:51.657Z,1015.62
2018-09-15T02:39:51.668Z,1015.61
2018-09-15T02:40:51.386Z,1015.59
2018-09-15T02:41:52.115Z,1015.62
2018-09-15T02:42:52.110Z,1015.63
2018-09-15T02:43:51.297Z,1015.63
2018-09-15T02:44:51.676Z,1015.68
2018-09-15T02:45:51.679Z,1015.74
2018-09-15T02:46:52.108Z,1015.73
2018-09-15T02:47:52.111Z,1015.72
2018-09-15T02:48:52.111Z,1015.75
2018-09-15T02:49:52.113Z,1015.72
2018-09-15T02:50:51.149Z,1015.70
2018-09-15T02:51:51.607Z,1015.69
2018-09-15T02:52:51.609Z,1015.68
2018-09-15T02:53:51.613Z,1015.67
2018-09-15T02:54:51.645Z,1015.66
2018-09-15T02:55:51.185Z,1015.66
2018-09-15T02:56:50.922Z,1015.67
2018-09-15T02:57:51.610Z,1015.69
2018-09-15T02:58:50.865Z,1015.69
2018-09-15T02:59:51.615Z,1015.67
2018-09-15T03:00:51.173Z,1015.69
2018-09-15T03:01:50.782Z,1015.68
2018-09-15T03:02:50.796Z,1015.65
2018-09-15T03:03:51.622Z,1015.63
2018-09-15T03:04:51.180Z,1015.64
2018-09-15T03:05:51.174Z,1015.64
2018-09-15T03:06:50.632Z,1015.61
2018-09-15T03:07:51.120Z,1015.61
2018-09-15T03:08:50.587Z,1015.61
2018-09-15T03:09:50.563Z,1015.64
2018-09-15T03:10:50.612Z,1015.67
2018-09-15T03:11:50.537Z,1015.65
2018-09-15T03:12:51.112Z,1015.69
2018-09-15T03:13:50.439Z,1015.68
2018-09-15T03:14:51.133Z,1015.64
2018-09-15T03:15:51.114Z,1015.66
2018-09-15T03:16:50.702Z,1015.72
2018-09-15T03:17:51.114Z,1015.71
2018-09-15T03:18:50.287Z,1015.72
2018-09-15T03:19:50.258Z,1015.74
2018-09-15T03:20:50.228Z,1015.76
2018-09-15T03:21:50.685Z,1015.76
2018-09-15T03:22:51.114Z,1015.76
2018-09-15T03:23:51.115Z,1015.81
2018-09-15T03:24:50.614Z,1015.79
2018-09-15T03:25:50.623Z,1015.79
2018-09-15T03:26:50.174Z,1015.78
2018-09-15T03:27:50.033Z,1015.77
2018-09-15T03:28:50.033Z,1015.75
2018-09-15T03:29:50.622Z,1015.78
2018-09-15T03:30:49.939Z,1015.71
2018-09-15T03:31:50.191Z,1015.72
2018-09-15T03:32:49.887Z,1015.70
2018-09-15T03:33:50.617Z,1015.73
2018-09-15T03:34:49.849Z,1015.72
2018-09-15T03:35:49.793Z,1015.76
2018-09-15T03:36:50.194Z,1015.81
2018-09-15T03:37:50.618Z,1015.72
2018-09-15T03:38:49.711Z,1015.73
2018-09-15T03:39:49.679Z,1015.74
2018-09-15T03:40:50.618Z,1015.72
2018-09-15T03:41:49.757Z,1015.73
2018-09-15T03:42:50.120Z,1015.72
2018-09-15T03:43:49.565Z,1015.77
2018-09-15T03:44:49.532Z,1015.75
2018-09-15T03:45:50.119Z,1015.73
2018-09-15T03:46:49.520Z,1015.75
2018-09-15T03:47:49.491Z,1015.79
2018-09-15T03:48:50.117Z,1015.79
2018-09-15T03:49:50.118Z,1015.74
2018-09-15T03:50:49.362Z,1015.79
2018-09-15T03:51:49.336Z,1015.84
2018-09-15T03:52:49.352Z,1015.89
2018-09-15T03:53:50.119Z,1015.87
2018-09-15T03:54:49.250Z,1015.88
2018-09-15T03:55:49.223Z,1015.89
2018-09-15T03:56:50.123Z,1016.02
2018-09-15T03:57:49.207Z,1016.01
2018-09-15T03:58:49.135Z,1016.04
2018-09-15T03:59:49.120Z,1016.02
2018-09-15T04:00:49.646Z,1016.04
2018-09-15T04:01:49.618Z,1016.12
2018-09-15T04:02:49.061Z,1016.05
2018-09-15T04:03:49.620Z,1016.07
2018-09-15T04:04:48.966Z,1016.03
2018-09-15T04:05:48.944Z,1016.04
2018-09-15T04:06:48.913Z,1016.04
2018-09-15T04:07:48.931Z,1016.09
2018-09-15T04:08:48.849Z,1016.09
2018-09-15T04:09:48.821Z,1016.13
2018-09-15T04:10:48.799Z,1016.13
2018-09-15T04:11:48.795Z,1016.11
2018-09-15T04:12:50.032Z,1016.08
2018-09-15T04:13:48.712Z,1016.13
2018-09-15T04:14:48.682Z,1016.13
2018-09-15T04:15:48.695Z,1016.18
2018-09-15T04:16:48.627Z,1016.20
2018-09-15T04:17:48.642Z,1016.13
2018-09-15T04:18:48.613Z,1016.21
2018-09-15T04:19:48.543Z,1016.16
2018-09-15T04:20:49.127Z,1016.19
2018-09-15T04:21:48.718Z,1016.18
2018-09-15T04:22:49.144Z,1016.20
2018-09-15T04:23:48.433Z,1016.19
2018-09-15T04:24:48.678Z,1016.21
2018-09-15T04:25:48.377Z,1016.21
2018-09-15T04:26:48.389Z,1016.20
2018-09-15T04:27:48.359Z,1016.25
2018-09-15T04:28:48.332Z,1016.26
2018-09-15T04:29:48.267Z,1016.25
2018-09-15T04:30:49.129Z,1016.28
2018-09-15T04:31:49.132Z,1016.27
2018-09-15T04:32:49.126Z,1016.28
2018-09-15T04:33:48.682Z,1016.28
2018-09-15T04:34:48.119Z,1016.29
2018-09-15T04:35:48.625Z,1016.29
2018-09-15T04:36:48.063Z,1016.34
2018-09-15T04:37:48.630Z,1016.31
2018-09-15T04:38:48.068Z,1016.36
2018-09-15T04:39:47.982Z,1016.35
2018-09-15T04:40:48.634Z,1016.34
2018-09-15T04:41:48.675Z,1016.34
2018-09-15T04:42:47.895Z,1016.33
2018-09-15T04:43:47.908Z,1016.30
2018-09-15T04:44:47.838Z,1016.30
2018-09-15T04:45:48.185Z,1016.34
2018-09-15T04:46:48.626Z,1016.35
2018-09-15T04:47:48.631Z,1016.36
2018-09-15T04:48:47.727Z,1016.40
2018-09-15T04:49:48.185Z,1016.42
2018-09-15T04:50:48.632Z,1016.40
2018-09-15T04:51:48.629Z,1016.44
2018-09-15T04:52:47.649Z,1016.43
2018-09-15T04:53:47.626Z,1016.42
2018-09-15T04:54:47.683Z,1016.50
2018-09-15T04:55:48.131Z,1016.55
2018-09-15T04:56:47.553Z,1016.55
2018-09-15T04:57:47.476Z,1016.56
2018-09-15T04:58:47.555Z,1016.59
2018-09-15T04:59:47.688Z,1016.61
2018-09-15T05:00:47.392Z,1016.56
2018-09-15T05:01:48.185Z,1016.60
2018-09-15T05:02:47.341Z,1016.58
2018-09-15T05:03:47.306Z,1016.62
2018-09-15T05:04:47.355Z,1016.61
2018-09-15T05:05:47.258Z,1016.58
2018-09-15T05:06:48.132Z,1016.59
2018-09-15T05:07:47.195Z,1016.59
2018-09-15T05:08:47.191Z,1016.62
2018-09-15T05:09:47.181Z,1016.67
2018-09-15T05:10:47.175Z,1016.71
2018-09-15T05:11:47.089Z,1016.71
2018-09-15T05:12:47.119Z,1016.68
2018-09-15T05:13:47.030Z,1016.71
2018-09-15T05:14:47.002Z,1016.75
2018-09-15T05:15:47.015Z,1016.76
2018-09-15T05:16:46.948Z,1016.78
2018-09-15T05:17:46.923Z,1016.82
2018-09-15T05:18:46.888Z,1016.78
2018-09-15T05:19:46.861Z,1016.79
2018-09-15T05:20:46.875Z,1016.78
2018-09-15T05:21:46.812Z,1016.81
2018-09-15T05:22:46.783Z,1016.82
2018-09-15T05:23:46.751Z,1016.82
2018-09-15T05:24:46.722Z,1016.79
2018-09-15T05:25:47.190Z,1016.74
2018-09-15T05:26:46.673Z,1016.76
2018-09-15T05:27:46.652Z,1016.76
2018-09-15T05:28:46.619Z,1016.79
2018-09-15T05:29:46.584Z,1016.80
2018-09-15T05:30:46.713Z,1016.82
2018-09-15T05:31:46.530Z,1016.80
2018-09-15T05:32:46.502Z,1016.84
2018-09-15T05:33:46.484Z,1016.83
2018-09-15T05:34:47.134Z,1016.88
2018-09-15T05:35:46.473Z,1016.87
2018-09-15T05:36:46.392Z,1016.91
2018-09-15T05:37:47.136Z,1016.91
2018-09-15T05:38:46.360Z,1016.92
2018-09-15T05:39:46.393Z,1016.94
2018-09-15T05:40:46.329Z,1016.96
2018-09-15T05:41:46.272Z,1016.94
2018-09-15T05:42:46.250Z,1016.97
2018-09-15T05:43:46.205Z,1016.97
2018-09-15T05:44:46.175Z,1017.00
2018-09-15T05:45:46.203Z,1016.99
2018-09-15T05:46:46.126Z,1017.03
2018-09-15T05:47:46.095Z,1017.04
2018-09-15T05:48:46.107Z,1017.04
2018-09-15T05:49:46.079Z,1017.05
2018-09-15T05:50:46.059Z,1017.11
2018-09-15T05:51:45.994Z,1017.16
2018-09-15T05:52:45.962Z,1017.16
2018-09-15T05:53:45.967Z,1017.19
2018-09-15T05:54:45.903Z,1017.18
2018-09-15T05:55:46.650Z,1017.11
2018-09-15T05:56:45.898Z,1017.12
2018-09-15T05:57:45.898Z,1017.15
2018-09-15T05:58:45.851Z,1017.12
2018-09-15T05:59:45.764Z,1017.15
2018-09-15T06:00:45.752Z,1017.18
2018-09-15T06:01:45.804Z,1017.17
2018-09-15T06:02:45.736Z,1017.20
2018-09-15T06:03:45.655Z,1017.21
2018-09-15T06:04:45.625Z,1017.26
2018-09-15T06:05:45.617Z,1017.28
2018-09-15T06:06:45.631Z,1017.26
2018-09-15T06:07:45.622Z,1017.24
2018-09-15T06:08:45.522Z,1017.25
2018-09-15T06:09:45.493Z,1017.22
2018-09-15T06:10:45.465Z,1017.24
2018-09-15T06:11:45.439Z,1017.30
2018-09-15T06:12:45.446Z,1017.26
2018-09-15T06:13:45.493Z,1017.28
2018-09-15T06:14:45.361Z,1017.29
2018-09-15T06:15:45.326Z,1017.31
2018-09-15T06:16:45.302Z,1017.25
2018-09-15T06:17:45.290Z,1017.30
2018-09-15T06:18:45.291Z,1017.30
2018-09-15T06:19:45.232Z,1017.30
2018-09-15T06:20:45.194Z,1017.32
2018-09-15T06:21:45.163Z,1017.29
2018-09-15T06:22:45.143Z,1017.30
2018-09-15T06:23:45.152Z,1017.33
2018-09-15T06:24:45.081Z,1017.37
2018-09-15T06:25:45.061Z,1017.37
2018-09-15T06:26:45.028Z,1017.31
2018-09-15T06:27:45.052Z,1017.35
2018-09-15T06:28:44.973Z,1017.39
2018-09-15T06:29:45.001Z,1017.39
2018-09-15T06:30:44.917Z,1017.35
2018-09-15T06:31:44.903Z,1017.43
2018-09-15T06:32:44.860Z,1017.44
2018-09-15T06:33:44.835Z,1017.44
2018-09-15T06:34:44.849Z,1017.42
2018-09-15T06:35:44.784Z,1017.42
2018-09-15T06:36:44.753Z,1017.43
2018-09-15T06:37:45.647Z,1017.43
2018-09-15T06:38:44.697Z,1017.44
2018-09-15T06:39:44.714Z,1017.47
2018-09-15T06:40:44.648Z,1017.50
2018-09-15T06:41:44.623Z,1017.50
2018-09-15T06:42:44.597Z,1017.48
2018-09-15T06:43:45.154Z,1017.50
2018-09-15T06:44:44.574Z,1017.55
2018-09-15T06:45:44.674Z,1017.54
2018-09-15T06:46:44.485Z,1017.52
2018-09-15T06:47:44.456Z,1017.56
2018-09-15T06:48:44.431Z,1017.59
2018-09-15T06:49:44.401Z,1017.57
2018-09-15T06:50:44.422Z,1017.57
2018-09-15T06:51:45.153Z,1017.51
2018-09-15T06:52:44.323Z,1017.56
2018-09-15T06:53:44.332Z,1017.56
2018-09-15T06:54:44.309Z,1017.56
2018-09-15T06:55:44.238Z,1017.55
2018-09-15T06:56:44.223Z,1017.54
2018-09-15T06:57:44.286Z,1017.55
2018-09-15T06:58:44.161Z,1017.54
2018-09-15T06:59:44.133Z,1017.56
2018-09-15T07:00:44.147Z,1017.53
2018-09-15T07:01:44.078Z,1017.55
2018-09-15T07:02:44.104Z,1017.57
2018-09-15T07:03:44.021Z,1017.57
2018-09-15T07:04:43.996Z,1017.58
2018-09-15T07:05:43.978Z,1017.59
2018-09-15T07:06:43.986Z,1017.55
2018-09-15T07:07:43.922Z,1017.60
2018-09-15T07:08:43.898Z,1017.58
2018-09-15T07:09:43.918Z,1017.56
2018-09-15T07:10:43.834Z,1017.62
2018-09-15T07:11:43.848Z,1017.58
2018-09-15T07:12:43.828Z,1017.60
2018-09-15T07:13:43.758Z,1017.61
2018-09-15T07:14:43.736Z,1017.62
2018-09-15T07:15:43.747Z,1017.60
2018-09-15T07:16:43.722Z,1017.60
2018-09-15T07:17:43.655Z,1017.66
2018-09-15T07:18:43.621Z,1017.63
2018-09-15T07:19:43.596Z,1017.66
2018-09-15T07:20:43.584Z,1017.67
2018-09-15T07:21:43.598Z,1017.69
2018-09-15T07:22:43.529Z,1017.68
2018-09-15T07:23:44.160Z,1017.66
2018-09-15T07:24:43.462Z,1017.75
2018-09-15T07:25:43.668Z,1017.67
2018-09-15T07:26:43.727Z,1017.76
2018-09-15T07:27:43.423Z,1017.72
2018-09-15T07:28:43.362Z,1017.71
2018-09-15T07:29:43.342Z,1017.72
2018-09-15T07:30:44.160Z,1017.77
2018-09-15T07:31:43.492Z,1017.75
2018-09-15T07:32:43.254Z,1017.76
2018-09-15T07:33:43.224Z,1017.79
2018-09-15T07:34:43.248Z,1017.79
2018-09-15T07:35:43.200Z,1017.84
2018-09-15T07:36:43.194Z,1017.82
2018-09-15T07:37:43.257Z,1017.89
2018-09-15T07:38:43.098Z,1017.88
2018-09-15T07:39:43.067Z,1017.80
2018-09-15T07:40:43.043Z,1017.85
2018-09-15T07:41:43.066Z,1017.89
2018-09-15T07:42:43.072Z,1017.89
2018-09-15T07:43:42.964Z,1017.90
2018-09-15T07:44:42.999Z,1017.94
2018-09-15T07:45:42.947Z,1017.91
2018-09-15T07:46:42.975Z,1017.93
2018-09-15T07:47:43.214Z,1017.95
2018-09-15T07:48:42.830Z,1017.95
2018-09-15T07:49:42.807Z,1018.01
2018-09-15T07:50:42.782Z,1017.99
2018-09-15T07:51:42.900Z,1018.01
2018-09-15T07:52:42.726Z,1018.07
2018-09-15T07:53:42.713Z,1018.02
2018-09-15T07:54:42.726Z,1018.02
2018-09-15T07:55:42.656Z,1018.07
2018-09-15T07:56:42.624Z,1018.11
2018-09-15T07:57:42.697Z,1018.13
2018-09-15T07:58:42.576Z,1018.11
2018-09-15T07:59:42.545Z,1018.09
2018-09-15T08:00:42.555Z,1018.09
2018-09-15T08:01:42.493Z,1018.10
2018-09-15T08:02:42.720Z,1018.08
2018-09-15T08:03:42.451Z,1018.12
2018-09-15T08:04:42.416Z,1018.15
2018-09-15T08:05:42.391Z,1018.12
2018-09-15T08:06:42.364Z,1018.13
2018-09-15T08:07:42.386Z,1018.11
2018-09-15T08:08:43.166Z,1018.19
2018-09-15T08:09:42.292Z,1018.12
2018-09-15T08:10:42.304Z,1018.15
2018-09-15T08:11:42.238Z,1018.15
2018-09-15T08:12:42.214Z,1018.19
2018-09-15T08:13:43.172Z,1018.23
2018-09-15T08:14:42.217Z,1018.22
2018-09-15T08:15:42.134Z,1018.24
2018-09-15T08:16:42.114Z,1018.19
2018-09-15T08:17:42.667Z,1018.21
2018-09-15T08:18:42.225Z,1018.23
2018-09-15T08:19:42.222Z,1018.27
2018-09-15T08:20:42.066Z,1018.27
2018-09-15T08:21:41.987Z,1018.33
2018-09-15T08:22:41.965Z,1018.31
2018-09-15T08:23:41.935Z,1018.34
2018-09-15T08:24:41.948Z,1018.28
2018-09-15T08:25:41.885Z,1018.36
2018-09-15T08:26:41.859Z,1018.34
2018-09-15T08:27:41.828Z,1018.37
2018-09-15T08:28:41.808Z,1018.33
2018-09-15T08:29:41.839Z,1018.37
2018-09-15T08:30:41.750Z,1018.38
2018-09-15T08:31:41.727Z,1018.40
2018-09-15T08:32:41.698Z,1018.43
2018-09-15T08:33:41.676Z,1018.46
2018-09-15T08:34:41.697Z,1018.48
2018-09-15T08:35:41.670Z,1018.48
2018-09-15T08:36:41.599Z,1018.44
2018-09-15T08:37:41.611Z,1018.43
2018-09-15T08:38:41.551Z,1018.47
2018-09-15T08:39:41.573Z,1018.47
2018-09-15T08:40:41.542Z,1018.45
2018-09-15T08:41:42.171Z,1018.43
2018-09-15T08:42:41.448Z,1018.45
2018-09-15T08:43:41.422Z,1018.48
2018-09-15T08:44:41.411Z,1018.42
2018-09-15T08:45:41.422Z,1018.41
2018-09-15T08:46:41.391Z,1018.47
2018-09-15T08:47:41.326Z,1018.41
2018-09-15T08:48:41.297Z,1018.51
2018-09-15T08:49:42.175Z,1018.49
2018-09-15T08:50:41.245Z,1018.47
2018-09-15T08:51:41.270Z,1018.41
2018-09-15T08:52:41.242Z,1018.47
2018-09-15T08:53:41.179Z,1018.46
2018-09-15T08:54:41.169Z,1018.48
2018-09-15T08:55:41.127Z,1018.53
2018-09-15T08:56:41.142Z,1018.55
2018-09-15T08:57:41.078Z,1018.57
2018-09-15T08:58:41.049Z,1018.48
2018-09-15T08:59:41.027Z,1018.54
2018-09-15T09:00:41.045Z,1018.59
2018-09-15T09:01:40.972Z,1018.50
2018-09-15T09:02:40.955Z,1018.59
2018-09-15T09:03:40.966Z,1018.60
2018-09-15T09:04:41.681Z,1018.70
2018-09-15T09:05:40.924Z,1018.57
2018-09-15T09:06:40.897Z,1018.63
2018-09-15T09:07:40.865Z,1018.62
2018-09-15T09:08:40.808Z,1018.55
2018-09-15T09:09:40.777Z,1018.51
2018-09-15T09:10:40.798Z,1018.56
2018-09-15T09:11:40.728Z,1018.55
2018-09-15T09:12:40.706Z,1018.52
2018-09-15T09:13:40.683Z,1018.56
2018-09-15T09:14:40.653Z,1018.54
2018-09-15T09:15:40.680Z,1018.51
2018-09-15T09:16:40.612Z,1018.48
2018-09-15T09:17:40.584Z,1018.60
2018-09-15T09:18:40.559Z,1018.59
2018-09-15T09:19:40.537Z,1018.57
2018-09-15T09:20:40.553Z,1018.60
2018-09-15T09:21:40.490Z,1018.58
2018-09-15T09:22:40.465Z,1018.56
2018-09-15T09:23:40.439Z,1018.54
2018-09-15T09:24:40.461Z,1018.53
2018-09-15T09:25:40.436Z,1018.50
2018-09-15T09:26:40.451Z,1018.50
2018-09-15T09:27:40.342Z,1018.43
2018-09-15T09:28:40.326Z,1018.41
2018-09-15T09:29:40.300Z,1018.44
2018-09-15T09:30:40.276Z,1018.50
2018-09-15T09:31:40.302Z,1018.50
2018-09-15T09:32:40.231Z,1018.50
2018-09-15T09:33:40.200Z,1018.49
2018-09-15T09:34:40.177Z,1018.50
2018-09-15T09:35:40.152Z,1018.50
2018-09-15T09:36:40.184Z,1018.48
2018-09-15T09:37:40.124Z,1018.49
2018-09-15T09:38:40.081Z,1018.46
2018-09-15T09:39:40.055Z,1018.42
2018-09-15T09:40:40.032Z,1018.33
2018-09-15T09:41:40.068Z,1018.48
2018-09-15T09:42:40.685Z,1018.41
2018-09-15T09:43:39.962Z,1018.46
2018-09-15T09:44:39.942Z,1018.51
2018-09-15T09:45:39.914Z,1018.49
2018-09-15T09:46:39.930Z,1018.41
2018-09-15T09:47:39.936Z,1018.47
2018-09-15T09:48:39.844Z,1018.47
2018-09-15T09:49:40.696Z,1018.43
2018-09-15T09:50:39.798Z,1018.43
2018-09-15T09:51:39.774Z,1018.46
2018-09-15T09:52:39.819Z,1018.49
2018-09-15T09:53:39.729Z,1018.45
2018-09-15T09:54:39.706Z,1018.46
2018-09-15T09:55:39.687Z,1018.47
2018-09-15T09:56:39.659Z,1018.53
2018-09-15T09:57:39.679Z,1018.45
2018-09-15T09:58:39.610Z,1018.55
2018-09-15T09:59:39.588Z,1018.39
2018-09-15T10:00:39.575Z,1018.46
2018-09-15T10:01:39.544Z,1018.45
2018-09-15T10:02:39.611Z,1018.48
2018-09-15T10:03:39.495Z,1018.53
2018-09-15T10:04:39.479Z,1018.53
2018-09-15T10:05:39.448Z,1018.37
2018-09-15T10:06:39.435Z,1018.43
2018-09-15T10:07:39.506Z,1018.49
2018-09-15T10:08:39.386Z,1018.55
2018-09-15T10:09:39.361Z,1018.59
2018-09-15T10:10:39.349Z,1018.50
2018-09-15T10:11:39.315Z,1018.49
2018-09-15T10:12:39.357Z,1018.57
2018-09-15T10:13:39.271Z,1018.59
2018-09-15T10:14:39.247Z,1018.56
2018-09-15T10:15:39.218Z,1018.57
2018-09-15T10:16:39.195Z,1018.64
2018-09-15T10:17:39.221Z,1018.59
2018-09-15T10:18:39.152Z,1018.63
2018-09-15T10:19:39.699Z,1018.64
2018-09-15T10:20:39.113Z,1018.58
2018-09-15T10:21:39.107Z,1018.59
2018-09-15T10:22:39.131Z,1018.56
2018-09-15T10:23:39.034Z,1018.53
2018-09-15T10:24:39.023Z,1018.60
2018-09-15T10:25:38.988Z,1018.61
2018-09-15T10:26:38.965Z,1018.53
2018-09-15T10:27:38.978Z,1018.58
2018-09-15T10:28:38.977Z,1018.60
2018-09-15T10:29:38.898Z,1018.59
2018-09-15T10:30:38.878Z,1018.56
2018-09-15T10:31:38.849Z,1018.55
2018-09-15T10:32:38.828Z,1018.56
2018-09-15T10:33:38.856Z,1018.57
2018-09-15T10:34:38.789Z,1018.57
2018-09-15T10:35:38.778Z,1018.56
2018-09-15T10:36:38.737Z,1018.56
2018-09-15T10:37:39.286Z,1018.56
2018-09-15T10:38:38.740Z,1018.52
2018-09-15T10:39:38.680Z,1018.50
2018-09-15T10:40:38.649Z,1018.56
2018-09-15T10:41:38.628Z,1018.60
2018-09-15T10:42:38.602Z,1018.56
2018-09-15T10:43:38.659Z,1018.56
2018-09-15T10:44:38.565Z,1018.49
2018-09-15T10:45:38.542Z,1018.57
2018-09-15T10:46:38.547Z,1018.57
2018-09-15T10:47:38.495Z,1018.55
2018-09-15T10:48:38.515Z,1018.47
2018-09-15T10:49:38.590Z,1018.50
2018-09-15T10:50:38.421Z,1018.55
2018-09-15T10:51:38.416Z,1018.49
2018-09-15T10:52:38.393Z,1018.49
2018-09-15T10:53:38.381Z,1018.58
2018-09-15T10:54:38.444Z,1018.48
2018-09-15T10:55:38.311Z,1018.54
2018-09-15T10:56:38.294Z,1018.49
2018-09-15T10:57:38.274Z,1018.47
2018-09-15T10:58:38.247Z,1018.54
2018-09-15T10:59:38.274Z,1018.50
2018-09-15T11:00:38.226Z,1018.49
2018-09-15T11:01:38.191Z,1018.45
2018-09-15T11:02:38.162Z,1018.49
2018-09-15T11:03:38.148Z,1018.53
2018-09-15T11:04:38.168Z,1018.59
2018-09-15T11:05:38.098Z,1018.57
2018-09-15T11:06:38.118Z,1018.53
2018-09-15T11:07:38.056Z,1018.51
2018-09-15T11:08:38.036Z,1018.52
2018-09-15T11:09:38.006Z,1018.58
2018-09-15T11:10:37.982Z,1018.51
2018-09-15T11:11:38.012Z,1018.47
2018-09-15T11:12:37.937Z,1018.60
2018-09-15T11:13:37.966Z,1018.55
2018-09-15T11:14:38.720Z,1018.58
2018-09-15T11:15:37.876Z,1018.53
2018-09-15T11:16:37.891Z,1018.50
2018-09-15T11:17:37.876Z,1018.47
2018-09-15T11:18:37.833Z,1018.45
2018-09-15T11:19:37.788Z,1018.43
2018-09-15T11:20:37.811Z,1018.41
2018-09-15T11:21:37.749Z,1018.46
2018-09-15T11:22:37.733Z,1018.36
2018-09-15T11:23:37.707Z,1018.34
2018-09-15T11:24:37.726Z,1018.43
2018-09-15T11:25:37.666Z,1018.42
2018-09-15T11:26:38.230Z,1018.39
2018-09-15T11:27:37.619Z,1018.41
2018-09-15T11:28:37.645Z,1018.39
2018-09-15T11:29:37.633Z,1018.37
2018-09-15T11:30:37.555Z,1018.48
2018-09-15T11:31:37.540Z,1018.47
2018-09-15T11:32:37.522Z,1018.51
2018-09-15T11:33:37.526Z,1018.50
2018-09-15T11:34:37.518Z,1018.45
2018-09-15T11:35:37.462Z,1018.40
2018-09-15T11:36:37.443Z,1018.42
2018-09-15T11:37:37.410Z,1018.46
2018-09-15T11:38:37.386Z,1018.42
2018-09-15T11:39:37.430Z,1018.45
2018-09-15T11:40:37.351Z,1018.46
2018-09-15T11:41:37.371Z,1018.42
2018-09-15T11:42:38.231Z,1018.47
2018-09-15T11:43:37.334Z,1018.39
2018-09-15T11:44:37.260Z,1018.42
2018-09-15T11:45:37.248Z,1018.39
2018-09-15T11:46:37.261Z,1018.32
2018-09-15T11:47:37.198Z,1018.36
2018-09-15T11:48:37.173Z,1018.47
2018-09-15T11:49:37.155Z,1018.41
2018-09-15T11:50:37.128Z,1018.46
2018-09-15T11:51:37.164Z,1018.51
2018-09-15T11:52:37.086Z,1018.49
2018-09-15T11:53:37.066Z,1018.51
2018-09-15T11:54:37.045Z,1018.48
2018-09-15T11:55:37.029Z,1018.49
2018-09-15T11:56:37.044Z,1018.50
2018-09-15T11:57:36.978Z,1018.54
2018-09-15T11:58:36.957Z,1018.49
2018-09-15T11:59:36.937Z,1018.50
2018-09-15T12:00:37.289Z,1018.53
2018-09-15T12:01:36.896Z,1018.56
2018-09-15T12:02:36.877Z,1018.50
2018-09-15T12:03:36.890Z,1018.44
2018-09-15T12:04:36.832Z,1018.49
2018-09-15T12:05:36.860Z,1018.48